Latest Weather Observations for Mandora

IDW60801

Issued at 2:33 pm WST Tuesday 31 March 2015 (issued every 30 minutes, with the page automatically refreshed every 10 minutes)

About weather observations | Map of weather stations | Latest weather observations for WA | Other Formats
Station Details ID: 004019 Name: MANDORA Lat: -19.74 Lon: 120.84 Height: 7.5 m
Data from the previous 72 hours. | See also: Recent months at Mandora
Date/Time
WST
Temp
°C
App
Temp
°C
Dew
Point
Rel
Hum
%
Delta-T
°C
Wind Press
QNH
hPa
Press
MSL
hPa
Rain
since 9 am
mm
Dir
 
Spd
km/h
Gust
km/h
Spd
kts
Gust
kts
31/02:30pm 35.2 36.6 22.5 47 8.8 WNW 19 32 10 17 1010.0 - 0.0
31/02:00pm 35.5 36.3 21.7 44 9.4 WNW 20 30 11 16 1010.1 - 0.0
31/01:30pm 36.3 36.7 20.9 40 10.4 WNW 20 30 11 16 1010.4 - 0.0
31/01:00pm 36.7 37.8 21.3 40 10.5 NW 17 24 9 13 1010.8 - 0.0
31/12:30pm 38.0 38.4 16.3 27 13.9 W 9 17 5 9 1011.1 - 0.0
31/12:00pm 37.6 37.3 16.5 28 13.5 SW 13 24 7 13 1011.7 1011.6 0.0
31/11:30am 37.1 36.9 16.6 29 13.1 SW 13 20 7 11 1012.2 - 0.0
31/11:00am 36.6 35.8 16.2 29 13.0 SW 15 22 8 12 1012.6 - 0.0
31/10:30am 35.9 34.9 16.6 31 12.3 SSW 17 26 9 14 1013.1 - 0.0
31/10:00am 34.7 33.9 17.9 37 10.9 SSW 19 26 10 14 1013.4 - 0.0
31/09:30am 34.1 33.2 18.2 39 10.3 SW 20 28 11 15 1013.7 - 0.0
31/09:00am 33.0 32.3 18.7 42 9.3 SSW 20 30 11 16 1013.8 1013.7 0.0
31/08:30am 32.0 31.3 19.6 47 8.2 SW 22 30 12 16 1014.0 - 0.0
31/08:00am 30.8 31.5 20.4 54 6.9 SSW 17 24 9 13 1014.1 - 0.0
31/07:30am 28.3 30.7 21.6 67 4.5 SW 11 15 6 8 1014.1 - 0.0
31/07:00am 25.4 28.1 21.3 78 2.7 WSW 9 11 5 6 1014.0 - 0.0
31/06:30am 25.0 27.5 21.1 79 2.6 WSW 9 11 5 6 1013.7 - 0.0
31/06:00am 25.0 27.4 20.9 78 2.7 SW 9 11 5 6 1013.5 1013.4 0.0
31/05:30am 25.6 28.1 21.1 76 3.0 SW 9 11 5 6 1013.1 - 0.0
31/05:00am 25.8 28.4 21.2 76 3.0 SW 9 11 5 6 1012.8 - 0.0
31/04:30am 26.1 28.6 21.1 74 3.3 SW 9 13 5 7 1012.4 - 0.0
31/04:00am 26.3 28.6 21.3 74 3.3 SW 11 15 6 8 1012.2 - 0.0
31/03:30am 26.7 28.7 21.5 73 3.5 SW 13 17 7 9 1012.1 - 0.0
31/03:00am 26.0 28.7 22.1 79 2.6 WSW 11 15 6 8 1012.0 1011.9 0.0
31/02:30am 25.5 28.4 22.4 83 2.1 WSW 11 15 6 8 1012.1 - 0.0
31/02:00am 25.3 28.5 22.4 84 1.9 WSW 9 11 5 6 1012.1 - 0.0
31/01:30am 25.6 28.9 22.5 83 2.1 W 9 11 5 6 1012.2 - 0.0
31/01:00am 26.0 29.8 22.7 82 2.2 W 7 9 4 5 1012.4 - 0.0
31/12:30am 26.9 30.7 22.7 78 2.8 WSW 7 9 4 5 1012.5 - 0.0
31/12:00am 27.4 31.0 23.0 77 3.0 W 9 11 5 6 1013.0 1012.9 0.0
 
Date/Time
WST
Temp
°C
App
Temp
°C
Dew
Point
Rel
Hum
%
Delta-T
°C
Wind Press
QNH
hPa
Press
MSL
hPa
Rain
since 9 am
mm
Dir
 
Spd
km/h
Gust
km/h
Spd
kts
Gust
kts
30/11:30pm 27.6 31.7 23.2 77 3.0 W 7 11 4 6 1013.3 - 0.0
30/11:00pm 27.8 32.0 23.4 77 3.0 W 7 11 4 6 1013.5 - 0.0
30/10:30pm 28.2 31.9 23.3 75 3.4 W 9 13 5 7 1013.8 - 0.0
30/10:00pm 28.3 31.3 23.4 75 3.4 WSW 13 17 7 9 1014.0 - 0.0
30/09:30pm 28.4 32.2 24.0 77 3.0 WSW 11 15 6 8 1013.9 - 0.0
30/09:00pm 28.2 32.5 24.2 79 2.8 WSW 9 13 5 7 1013.7 1013.6 0.0
30/08:30pm 28.3 32.8 23.9 77 3.0 WSW 7 9 4 5 1013.7 - 0.0
30/08:00pm 28.8 32.4 23.7 74 3.5 W 11 15 6 8 1013.3 - 0.0
30/07:30pm 29.0 32.7 23.9 74 3.5 W 11 17 6 9 1013.0 - 0.0
30/07:00pm 29.1 32.4 22.6 68 4.4 W 9 13 5 7 1012.8 - 0.0
30/06:30pm 29.2 33.0 23.4 71 4.0 WNW 9 13 5 7 1012.5 - 0.0
30/06:00pm 29.7 32.8 22.9 67 4.6 WNW 11 15 6 8 1012.1 1012.0 0.0
30/05:30pm 30.5 34.0 22.9 64 5.2 WNW 9 13 5 7 1011.7 - 0.0
30/05:00pm 31.4 33.8 21.6 56 6.6 WNW 11 17 6 9 1011.5 - 0.0
30/04:30pm 31.6 33.6 22.3 57 6.3 NW 15 22 8 12 1011.2 - 0.0
30/04:00pm 32.4 34.2 21.9 54 7.1 NW 15 20 8 11 1010.8 - 0.0
30/03:30pm 36.2 36.8 15.3 28 13.1 SSE 6 9 3 5 1010.5 - 0.0
30/03:00pm 36.5 36.6 14.5 27 13.7 SW 7 11 4 6 1010.5 1010.4 0.0
30/02:30pm 36.2 37.0 14.8 28 13.3 SSE 4 13 2 7 1010.6 - 0.0
30/02:00pm 35.1 35.5 16.4 32 11.9 S 9 17 5 9 1010.8 - 0.0
30/01:30pm 34.5 34.4 15.9 33 11.7 S 11 19 6 10 1011.2 - 0.0
30/01:00pm 34.3 34.4 16.6 34 11.2 S 11 17 6 9 1011.5 - 0.0
30/12:30pm 34.2 34.5 16.1 34 11.4 SSE 9 13 5 7 1011.8 - 0.0
30/12:00pm 34.6 35.6 16.9 35 11.3 SSE 7 13 4 7 1012.2 1012.1 0.0
30/11:30am 34.2 35.4 17.4 36 10.8 SSE 7 11 4 6 1012.9 - 0.0
30/11:00am 33.2 33.9 17.0 38 10.3 S 9 13 5 7 1013.3 - 0.0
30/10:30am 32.0 33.5 18.9 45 8.5 SE 9 15 5 8 1013.5 - 0.0
30/10:00am 31.2 34.4 21.7 57 6.4 SSE 7 11 4 6 1013.9 - 0.0
30/09:30am 30.4 34.8 23.8 68 4.6 SSE 7 11 4 6 1014.2 - 0.0
30/09:00am 29.6 34.5 24.7 75 3.4 S 7 11 4 6 1014.4 1014.3 0.0
30/08:30am 29.1 34.2 24.9 78 2.9 SSW 7 11 4 6 1014.4 - 0.0
30/08:00am 28.4 33.9 24.6 80 2.6 SSE 4 9 2 5 1014.2 - 0.0
30/07:30am 27.4 32.7 25.0 87 1.7 S 6 7 3 4 1014.0 - 0.0
30/07:00am 26.7 33.0 24.7 89 1.4 CALM 0 2 0 1 1013.8 - 0.0
30/06:30am 26.3 31.2 24.3 89 1.4 W 6 7 3 4 1013.5 - 0.0
30/06:00am 26.4 31.0 24.1 87 1.6 S 7 9 4 5 1013.5 1013.4 0.0
30/05:30am 26.7 31.3 24.2 86 1.7 SE 7 9 4 5 1013.0 - 0.0
30/05:00am 26.8 31.5 24.3 86 1.7 SE 7 9 4 5 1012.6 - 0.0
30/04:30am 26.7 31.1 24.5 88 1.5 SSE 9 11 5 6 1012.5 - 0.0
30/04:00am 26.6 31.4 24.4 88 1.5 SSE 7 11 4 6 1012.4 - 0.0
30/03:30am 26.5 31.5 24.5 89 1.4 SE 6 7 3 4 1012.2 - 0.0
30/03:00am 26.5 32.1 24.3 88 1.5 ESE 2 7 1 4 1012.4 1012.3 0.0
30/02:30am 26.5 31.1 24.2 87 1.6 SE 7 9 4 5 1012.4 - 0.0
30/02:00am 26.5 31.6 24.0 86 1.7 S 4 7 2 4 1012.6 - 0.0
30/01:30am 26.6 31.2 24.1 86 1.7 S 7 9 4 5 1012.7 - 0.0
30/01:00am 26.7 31.7 23.8 84 2.0 SW 4 6 2 3 1012.7 - 0.0
30/12:30am 26.9 32.1 23.6 82 2.3 N 2 6 1 3 1012.9 - 0.0
30/12:00am 27.1 31.7 24.2 84 2.0 NNW 7 9 4 5 1013.5 1013.4 0.0
 
Date/Time
WST
Temp
°C
App
Temp
°C
Dew
Point
Rel
Hum
%
Delta-T
°C
Wind Press
QNH
hPa
Press
MSL
hPa
Rain
since 9 am
mm
Dir
 
Spd
km/h
Gust
km/h
Spd
kts
Gust
kts
29/11:30pm 27.2 33.2 24.3 84 2.0 CALM 0 0 0 0 1014.0 - 0.0
29/11:00pm 27.4 33.2 24.0 82 2.3 CALM 0 0 0 0 1014.0 - 0.0
29/10:30pm 27.5 32.1 24.1 82 2.3 N 7 11 4 6 1014.3 - 0.0
29/10:00pm 27.6 30.7 24.2 82 2.4 N 15 19 8 10 1014.7 - 0.0
29/09:30pm 27.5 32.6 24.7 85 1.9 NNW 6 7 3 4 1014.4 - 0.0
29/09:00pm 27.5 32.4 24.7 85 1.9 NNW 7 7 4 4 1014.5 1014.4 0.0
29/08:30pm 27.7 32.6 24.7 84 2.1 N 7 9 4 5 1014.3 - 0.0
29/08:00pm 27.8 33.4 24.8 84 2.1 NW 4 7 2 4 1013.9 - 0.0
29/07:30pm 28.1 33.7 24.9 83 2.2 WNW 4 9 2 5 1013.2 - 0.0
29/07:00pm 28.4 33.5 25.0 82 2.4 WNW 7 11 4 6 1013.2 - 0.0
29/06:30pm 28.9 33.3 24.5 77 3.1 N 9 13 5 7 1013.0 - 0.0
29/06:00pm 29.5 33.7 23.4 69 4.2 N 7 15 4 8 1012.8 1012.7 0.0
29/05:30pm 30.0 33.3 23.2 67 4.7 NNE 11 15 6 8 1012.6 - 0.0
29/05:00pm 30.4 32.6 22.6 63 5.3 N 15 24 8 13 1012.3 - 0.0
29/04:30pm 30.6 31.7 21.9 59 5.9 N 19 28 10 15 1011.8 - 0.0
29/04:00pm 31.0 32.5 22.0 58 6.1 N 17 26 9 14 1011.7 - 0.0
29/03:30pm 31.4 32.8 21.8 56 6.5 NNE 17 24 9 13 1011.6 - 0.0
29/03:00pm 31.3 31.8 21.2 55 6.8 NNE 20 33 11 18 1011.7 1011.6 0.0
29/02:30pm 33.1 33.5 19.9 45 8.7 NNE 17 28 9 15 1011.4 - 0.0
29/02:00pm 34.4 34.7 20.7 44 9.2 N 20 30 11 16 1011.3 - 0.0
29/01:30pm 35.3 36.0 20.4 41 10.0 N 17 24 9 13 1011.3 - 0.0
29/01:00pm 34.9 35.1 18.5 38 10.7 ENE 15 26 8 14 1011.8 - 0.0
29/12:30pm 34.0 33.4 18.5 40 10.1 ENE 19 32 10 17 1012.2 - 0.0
29/12:00pm 32.7 33.5 19.9 46 8.5 E 15 24 8 13 1012.6 1012.5 0.0
29/11:30am 32.5 33.9 20.4 49 8.1 E 13 22 7 12 1013.1 - 0.0
29/11:00am 31.6 32.6 20.2 50 7.6 E 15 24 8 13 1013.7 - 0.0
29/10:30am 31.4 32.5 20.4 52 7.3 ESE 15 24 8 13 1013.8 - 0.0
29/10:00am 31.5 32.3 19.8 49 7.7 E 15 26 8 14 1014.0 - 0.0
29/09:30am 31.3 32.8 20.6 53 7.1 E 13 20 7 11 1014.3 - 0.0
29/09:00am 30.8 32.4 20.7 55 6.7 E 13 20 7 11 1014.1 1014.0 0.0
29/08:30am 29.6 31.7 21.0 60 5.7 E 11 17 6 9 1014.1 - 0.0
29/08:00am 28.6 31.3 21.4 65 4.8 ESE 9 17 5 9 1013.7 - 0.0
29/07:30am 27.2 30.0 21.5 71 3.8 SE 9 15 5 8 1013.2 - 0.0
29/07:00am 26.3 29.4 21.5 75 3.2 ESE 7 11 4 6 1012.7 - 0.0
29/06:30am 25.0 28.3 21.5 81 2.3 ESE 6 9 3 5 1012.5 - 0.0
29/06:00am 24.7 27.9 21.2 81 2.3 ESE 6 9 3 5 1011.9 1011.8 0.0
29/05:30am 25.2 28.1 21.1 78 2.7 E 7 9 4 5 1011.9 - 0.0
29/05:00am 25.4 28.3 21.1 77 2.8 ESE 7 9 4 5 1011.8 - 0.0
29/04:30am 25.7 28.5 20.9 75 3.2 ESE 7 9 4 5 1011.5 - 0.0
29/04:00am 26.1 28.9 20.9 73 3.4 ESE 7 11 4 6 1011.3 - 0.0
29/03:30am 26.1 29.0 21.1 74 3.3 ESE 7 9 4 5 1011.2 - 0.0
29/03:00am 26.6 29.2 20.4 69 4.1 E 7 13 4 7 1011.3 1011.2 0.0
29/02:30am 27.1 28.4 20.2 66 4.5 ENE 13 20 7 11 1011.3 - 0.0
29/02:00am 27.2 29.1 20.5 67 4.4 ENE 11 17 6 9 1011.6 - 0.0
29/01:30am 27.6 28.3 20.4 65 4.7 NE 17 26 9 14 1011.6 - 0.0
29/01:00am 27.7 29.8 21.0 67 4.4 ENE 11 22 6 12 1012.1 - 0.0
29/12:30am 27.9 31.0 22.1 70 3.9 ENE 9 15 5 8 1012.3 - 0.0
29/12:00am 28.1 31.4 22.6 72 3.7 ENE 9 15 5 8 1012.4 1012.3 0.0
 
Date/Time
WST
Temp
°C
App
Temp
°C
Dew
Point
Rel
Hum
%
Delta-T
°C
Wind Press
QNH
hPa
Press
MSL
hPa
Rain
since 9 am
mm
Dir
 
Spd
km/h
Gust
km/h
Spd
kts
Gust
kts
28/11:30pm 27.6 31.5 23.6 79 2.7 ENE 9 13 5 7 1012.5 - 0.0
28/11:00pm 26.8 31.3 23.9 84 2.0 ESE 7 9 4 5 1012.5 - 0.0
28/10:30pm 27.1 31.7 24.2 84 2.0 ESE 7 9 4 5 1012.5 - 0.0
28/10:00pm 27.3 31.9 24.2 83 2.1 E 7 7 4 4 1012.5 - 0.0
28/09:30pm 27.5 32.0 23.9 81 2.5 NE 7 9 4 5 1012.6 - 0.0
28/09:00pm 28.0 32.8 24.2 80 2.6 NNE 6 7 3 4 1012.5 1012.4 0.0
28/08:30pm 28.0 32.4 24.4 81 2.5 NNE 9 11 5 6 1012.2 - 0.0
28/08:00pm 28.1 32.0 24.3 80 2.6 NNE 11 13 6 7 1011.8 - 0.0
28/07:30pm 28.3 32.9 24.1 78 2.9 N 7 9 4 5 1011.2 - 0.0
28/07:00pm 28.7 33.3 23.8 75 3.4 NNW 6 9 3 5 1010.6 - 0.0
28/06:30pm 28.9 32.6 23.3 72 3.8 N 9 11 5 6 1010.5 - 0.0
28/06:00pm 30.0 33.8 22.7 65 5.0 N 7 11 4 6 1009.8 1009.7 0.0
28/05:30pm 31.3 34.5 22.3 58 6.1 NNW 9 13 5 7 1009.4 - 0.0
28/05:00pm 32.2 34.1 21.4 53 7.3 N 13 19 7 10 1009.4 - 0.0
28/04:30pm 33.0 34.5 20.5 47 8.3 NNW 13 17 7 9 1009.2 - 0.0
28/04:00pm 33.4 35.2 21.2 48 8.2 N 13 20 7 11 1009.3 - 0.0
28/03:30pm 34.4 34.7 20.4 44 9.4 N 19 26 10 14 1009.1 - 0.0
28/03:00pm 34.9 35.8 20.1 42 9.9 N 15 20 8 11 1009.2 1009.1 0.0

Other Formats:

Comma delimited format used in spreadsheet applications
http://www.bom.gov.au/fwo/IDW60801/IDW60801.94200.axf

JavaScript Object Notation format (JSON) in row-major order
http://www.bom.gov.au/fwo/IDW60801/IDW60801.94200.json